Ds Progress — D5CQ9 — position and weather

sailwx.info

Track history (hours):
 
Tides and Currents Weather Stations Pressure Air Temp Water Temp Dewpoint Dewpoint Depression Visibility Wind Speed Wind Dir Waves Ship Positions

Ds Progress

Last reported at 2017-Sep-15 21:41 UTC. Time now 2017-Sep-21 23:07 UTC.
Position N 28°13' W 116°05'.

Length 220 m; draft 8 m.

Type: Tanker. MMSI: 636092443.

Date/timePositionNaut miles runAvg speedWind from/ knotsBaromVisibWave heightAir tempDewpointWater temp
2017-Sep-15 21:41N 28°13' W 116°05'211.2
2017-Sep-15 21:29N 28°16' W 116°06'20811.7
2017-Sep-15 03:39N 31°34' W 117°17'2512.6
2017-Sep-15 01:42N 31°58' W 117°25'812.0
2017-Sep-15 01:00N 32°06' W 117°29'611.7
2017-Sep-15 00:30N 32°11' W 117°30'611.7
2017-Sep-15 00:00N 32°17' W 117°32'611.5
2017-Sep-14 23:30N 32°22' W 117°34'611.4
2017-Sep-14 23:00N 32°28' W 117°36'611.4
2017-Sep-14 22:30N 32°33' W 117°38'611.3
2017-Sep-14 22:00N 32°38' W 117°40'611.5
2017-Sep-14 21:30N 32°44' W 117°44'611.7
2017-Sep-14 21:00N 32°49' W 117°47'611.6
2017-Sep-14 20:30N 32°54' W 117°50'611.3
2017-Sep-14 20:00N 32°59' W 117°54'611.4
2017-Sep-14 19:30N 33°04' W 117°57'611.2
2017-Sep-14 19:00N 33°09' W 117°60'611.2
2017-Sep-14 18:30N 33°14' W 118°03'611.1
2017-Sep-14 18:00N 33°19' W 118°06'3 6.2
2017-Sep-14 17:30N 33°22' W 118°07'3 6.8
2017-Sep-14 17:00N 33°25' W 118°09'611.3
2017-Sep-14 16:30N 33°30' W 118°11'610.9
2017-Sep-14 16:00N 33°35' W 118°13'4 8.6
2017-Sep-14 15:30N 33°39' W 118°11'4 8.3
2017-Sep-14 15:00N 33°44' W 118°11'2 2.5
2017-Sep-14 14:16N 33°44' W 118°13'0 0.0
2017-Sep-14 13:58N 33°44' W 118°13'0 0.0
2017-Sep-14 12:10N 33°44' W 118°13'0 0.1
2017-Sep-14 10:04N 33°44' W 118°13'0 0.0
2017-Sep-14 09:52N 33°44' W 118°13'0 0.0
2017-Sep-14 08:10N 33°44' W 118°13'0 0.0
2017-Sep-14 07:52N 33°44' W 118°13'0 0.0
2017-Sep-14 06:16N 33°44' W 118°13'0 0.1
2017-Sep-14 05:04N 33°44' W 118°13'0 0.1
2017-Sep-14 04:58N 33°44' W 118°13'0 0.0
2017-Sep-14 04:19N 33°44' W 118°13'0 0.0
2017-Sep-14 03:22N 33°44' W 118°13'0 0.0
2017-Sep-14 02:40N 33°44' W 118°13'0 0.0
2017-Sep-14 02:28N 33°44' W 118°13'0 0.0
2017-Sep-14 01:58N 33°44' W 118°13'0 0.0
2017-Sep-14 01:16N 33°44' W 118°13'0 0.1
2017-Sep-14 00:58N 33°44' W 118°13'0 0.4
2017-Sep-14 00:30N 33°44' W 118°13'2 4.9
2017-Sep-14 00:00N 33°43' W 118°16'1 1.6
2017-Sep-13 23:30N 33°44' W 118°16'0 0.0
2017-Sep-13 22:51N 33°44' W 118°16'0 0.0
2017-Sep-13 22:27N 33°44' W 118°16'0 0.0
2017-Sep-13 21:51N 33°44' W 118°16'0 0.0
2017-Sep-13 20:33N 33°44' W 118°16'0 0.0
2017-Sep-13 20:15N 33°44' W 118°16'0 0.0
2017-Sep-13 19:57N 33°44' W 118°16'0 0.0
2017-Sep-13 19:27N 33°44' W 118°16'0 0.0
2017-Sep-13 18:39N 33°44' W 118°16'0 0.0
2017-Sep-13 18:27N 33°44' W 118°16'0 0.0
2017-Sep-13 17:51N 33°44' W 118°16'0 0.0
2017-Sep-13 14:21N 33°44' W 118°16'0 0.0
2017-Sep-13 13:57N 33°44' W 118°16'0 0.0
2017-Sep-13 13:21N 33°44' W 118°16'0 0.0
2017-Sep-13 12:57N 33°44' W 118°16'0 0.0
2017-Sep-13 12:27N 33°44' W 118°16'0 0.0
2017-Sep-13 11:57N 33°44' W 118°16'0 0.0
2017-Sep-13 11:27N 33°44' W 118°16'0 0.0
2017-Sep-13 10:57N 33°44' W 118°16'0 0.0
2017-Sep-13 09:33N 33°44' W 118°16'0 0.0
2017-Sep-13 09:27N 33°44' W 118°16'0 0.0
2017-Sep-13 08:21N 33°44' W 118°16'0 0.0
2017-Sep-13 07:51N 33°44' W 118°16'0 0.0
2017-Sep-13 07:27N 33°44' W 118°16'0 0.0
2017-Sep-13 06:57N 33°44' W 118°16'0 0.0
2017-Sep-13 04:45N 33°44' W 118°16'0 0.0
2017-Sep-13 04:27N 33°44' W 118°16'0 0.0
2017-Sep-13 02:09N 33°44' W 118°16'0 0.0
2017-Sep-13 01:57N 33°44' W 118°16'0 0.0
2017-Sep-13 01:27N 33°44' W 118°16'0 0.0
2017-Sep-13 01:00N 33°44' W 118°16'0 0.0
2017-Sep-13 00:27N 33°44' W 118°16'0 0.0
2017-Sep-12 23:57N 33°44' W 118°16'0 0.0
2017-Sep-12 23:30N 33°44' W 118°16'0 0.0
2017-Sep-12 22:57N 33°44' W 118°16'0 0.0
2017-Sep-12 22:27N 33°44' W 118°16'0 0.0
2017-Sep-12 21:57N 33°44' W 118°16'0 0.0
2017-Sep-12 21:21N 33°44' W 118°16'0 0.0
2017-Sep-12 20:51N 33°44' W 118°16'0 0.0
2017-Sep-12 20:21N 33°44' W 118°16'0 0.0
2017-Sep-12 19:57N 33°44' W 118°16'0 0.0
2017-Sep-12 18:21N 33°44' W 118°16'0 0.0
2017-Sep-12 17:57N 33°44' W 118°16'0 0.0
2017-Sep-12 17:03N 33°44' W 118°16'0 0.0
2017-Sep-12 16:57N 33°44' W 118°16'0 0.0
2017-Sep-12 16:21N 33°44' W 118°16'0 0.0
2017-Sep-12 15:57N 33°44' W 118°16'0 0.0
2017-Sep-12 15:21N 33°44' W 118°16'0 0.0
2017-Sep-12 14:57N 33°44' W 118°16'0 0.0
2017-Sep-12 13:27N 33°44' W 118°16'0 0.0
2017-Sep-12 12:51N 33°44' W 118°16'0 0.0
2017-Sep-12 12:15N 33°44' W 118°16'0 0.0
2017-Sep-12 11:57N 33°44' W 118°16'0 0.0
2017-Sep-12 11:27N 33°44' W 118°16'0 0.0
2017-Sep-12 10:51N 33°44' W 118°16'0 0.0
2017-Sep-12 10:27N 33°44' W 118°16'0 0.0
2017-Sep-12 08:30N 33°44' W 118°16'0 0.0
2017-Sep-12 08:00N 33°44' W 118°16'0 0.0
2017-Sep-12 07:27N 33°44' W 118°16'0 0.0
2017-Sep-12 07:00N 33°44' W 118°16'0 0.0
2017-Sep-12 06:30N 33°44' W 118°16'0 0.0
2017-Sep-12 06:00N 33°44' W 118°16'0 0.0
2017-Sep-12 05:30N 33°44' W 118°16'0 0.0
2017-Sep-12 04:57N 33°44' W 118°16'0 0.0
2017-Sep-12 04:24N 33°44' W 118°16'0 0.0
2017-Sep-12 04:00N 33°44' W 118°16'0 0.0
2017-Sep-12 03:27N 33°44' W 118°16'0 0.0
2017-Sep-12 02:54N 33°44' W 118°16'0 0.0
2017-Sep-12 02:30N 33°44' W 118°16'0 0.0
2017-Sep-12 02:00N 33°44' W 118°16'0 0.0
2017-Sep-12 01:30N 33°44' W 118°16'0 0.0
2017-Sep-12 00:57N 33°44' W 118°16'0 0.0
2017-Sep-12 00:21N 33°44' W 118°16'0 0.0
2017-Sep-12 00:00N 33°44' W 118°16'0 0.0
2017-Sep-11 23:30N 33°44' W 118°16'0 0.0
2017-Sep-11 23:00N 33°44' W 118°16'0 0.0
2017-Sep-11 22:27N 33°44' W 118°16'0 0.0
2017-Sep-11 22:00N 33°44' W 118°16'0 0.0
2017-Sep-11 21:30N 33°44' W 118°16'0 0.9
2017-Sep-11 21:00N 33°44' W 118°16'2 3.2
2017-Sep-11 20:30N 33°43' W 118°15'2 3.9
2017-Sep-11 19:58N 33°44' W 118°13'0 0.0
2017-Sep-11 19:25N 33°44' W 118°13'0 0.0
2017-Sep-11 18:59N 33°44' W 118°13'0 0.1
2017-Sep-11 18:29N 33°44' W 118°13'0 0.0
2017-Sep-11 17:58N 33°44' W 118°13'0 0.0
2017-Sep-11 17:28N 33°44' W 118°13'0 0.0
2017-Sep-11 16:58N 33°44' W 118°13'0 0.0
2017-Sep-11 16:28N 33°44' W 118°13'0 0.0
2017-Sep-11 15:58N 33°44' W 118°13'0 0.0
2017-Sep-11 15:25N 33°44' W 118°13'0 0.0
2017-Sep-11 14:59N 33°44' W 118°13'0 0.0
2017-Sep-11 14:28N 33°44' W 118°13'0 0.0
2017-Sep-11 13:59N 33°44' W 118°13'0 0.1
2017-Sep-11 13:16N 33°44' W 118°13'0 0.2
2017-Sep-11 12:59N 33°44' W 118°13'0 0.1
2017-Sep-11 12:29N 33°44' W 118°13'0 0.0
2017-Sep-11 11:59N 33°44' W 118°13'0 0.0
2017-Sep-11 11:28N 33°44' W 118°13'0 0.2
2017-Sep-11 10:56N 33°44' W 118°13'1 2.1
2017-Sep-11 10:30N 33°45' W 118°13'1 0.2
2017-Sep-11 04:26N 33°46' W 118°13'0 0.0
2017-Sep-11 03:59N 33°46' W 118°13'0 0.0
2017-Sep-11 02:56N 33°46' W 118°13'0 0.0
2017-Sep-10 20:26N 33°46' W 118°13'0 0.0
2017-Sep-10 19:50N 33°46' W 118°13'0 0.0
2017-Sep-10 19:08N 33°46' W 118°13'0 0.0
2017-Sep-10 18:50N 33°46' W 118°13'0 0.0
2017-Sep-10 18:26N 33°46' W 118°13'0 0.0
2017-Sep-10 17:56N 33°46' W 118°13'0 0.0
2017-Sep-10 17:26N 33°46' W 118°13'0 0.0
2017-Sep-10 16:56N 33°46' W 118°13'0 0.0
2017-Sep-10 16:26N 33°46' W 118°13'0 0.0
2017-Sep-10 15:56N 33°46' W 118°13'0 0.0
2017-Sep-10 15:20N 33°46' W 118°13'0 0.0
2017-Sep-10 14:56N 33°46' W 118°13'0 0.0
2017-Sep-10 13:56N 33°46' W 118°13'0 0.0
2017-Sep-10 13:27N 33°46' W 118°13'0 0.0
2017-Sep-10 12:49N 33°46' W 118°13'0 0.0
2017-Sep-10 12:27N 33°46' W 118°13'0 0.0
2017-Sep-10 12:00N 33°46' W 118°13'0 0.6
2017-Sep-10 11:30N 33°46' W 118°13'2 3.2
2017-Sep-10 11:00N 33°45' W 118°13'3 6.1
2017-Sep-10 10:30N 33°42' W 118°11'4 7.9
2017-Sep-10 10:00N 33°38' W 118°10'4 7.3
2017-Sep-10 09:30N 33°34' W 118°09'4 7.4
2017-Sep-10 09:00N 33°31' W 118°08'510.1
2017-Sep-10 08:30N 33°26' W 118°06'611.1
2017-Sep-10 08:00N 33°21' W 118°03'611.1
2017-Sep-10 07:30N 33°16' W 118°01'611.1
2017-Sep-10 07:00N 33°11' W 117°58'611.0
2017-Sep-10 06:30N 33°06' W 117°55'611.1
2017-Sep-10 06:00N 33°01' W 117°52'611.0
2017-Sep-10 05:30N 32°56' W 117°49'511.0
2017-Sep-10 05:00N 32°51' W 117°47'510.7
2017-Sep-10 04:30N 32°46' W 117°44'510.9
2017-Sep-10 04:00N 32°41' W 117°42'510.8
2017-Sep-10 03:30N 32°36' W 117°39'510.9
2017-Sep-10 03:00N 32°31' W 117°37'510.7
2017-Sep-10 02:30N 32°26' W 117°35'510.4
2017-Sep-10 02:00N 32°21' W 117°33'510.3
2017-Sep-10 01:30N 32°16' W 117°32'3 6.8
2017-Sep-10 01:00N 32°13' W 117°31'2 4.3
2017-Sep-10 00:30N 32°11' W 117°30'4 8.8
2017-Sep-10 00:00N 32°06' W 117°28'5 9.4
2017-Sep-09 23:30N 32°02' W 117°27'5 9.6
2017-Sep-09 23:00N 31°57' W 117°25'510.4
2017-Sep-09 22:30N 31°52' W 117°23'510.5
2017-Sep-09 22:00N 31°47' W 117°21'510.3
2017-Sep-09 21:30N 31°43' W 117°19'510.3
2017-Sep-09 21:00N 31°38' W 117°18'510.2
2017-Sep-09 20:30N 31°33' W 117°16'510.3
2017-Sep-09 19:59N 31°28' W 117°14'510.1
2017-Sep-09 19:29N 31°23' W 117°12'510.2
2017-Sep-09 19:00N 31°18' W 117°11'510.2
2017-Sep-09 18:30N 31°13' W 117°09'510.4
2017-Sep-09 18:00N 31°08' W 117°07'510.5
2017-Sep-09 17:30N 31°03' W 117°05'2410.7
2017-Sep-09 15:16N 30°40' W 116°57'510.7
2017-Sep-09 14:48N 30°36' W 116°55'1110.8
2017-Sep-09 13:48N 30°25' W 116°51'3410.5
2017-Sep-09 10:34N 29°53' W 116°40'110.4
2017-Sep-09 10:30N 29°52' W 116°40'1710.4
2017-Sep-09 08:50N 29°36' W 116°34'410.6
2017-Sep-09 08:27N 29°32' W 116°32'510.4
2017-Sep-09 08:00N 29°27' W 116°31'510.1
2017-Sep-09 07:30N 29°23' W 116°29'510.2
2017-Sep-09 07:00N 29°18' W 116°27'910.5
2017-Sep-09 06:07N 29°09' W 116°24'210.4
2017-Sep-09 05:55N 29°07' W 116°24'410.4
2017-Sep-09 05:30N 29°03' W 116°22'510.4
2017-Sep-09 05:00N 28°58' W 116°20'  
Track history (hours):
 
Tides and Currents Weather Stations Pressure Air Temp Water Temp Dewpoint Dewpoint Depression Visibility Wind Speed Wind Dir Waves Ship Positions

Ds Progress

Last reported at 2017-Sep-15 21:41 UTC. Time now 2017-Sep-21 23:07 UTC.
Position N 28°13' W 116°05'.

Length 220 m; draft 8 m.

Type: Tanker. MMSI: 636092443.

Date/timePositionNaut miles runAvg speedWind from/ knotsBaromVisibWave heightAir tempDewpointWater temp
2017-Sep-15 21:41N 28°13' W 116°05'211.2
2017-Sep-15 21:29N 28°16' W 116°06'20811.7
2017-Sep-15 03:39N 31°34' W 117°17'2512.6
2017-Sep-15 01:42N 31°58' W 117°25'812.0
2017-Sep-15 01:00N 32°06' W 117°29'611.7
2017-Sep-15 00:30N 32°11' W 117°30'611.7
2017-Sep-15 00:00N 32°17' W 117°32'611.5
2017-Sep-14 23:30N 32°22' W 117°34'611.4
2017-Sep-14 23:00N 32°28' W 117°36'611.4
2017-Sep-14 22:30N 32°33' W 117°38'611.3
2017-Sep-14 22:00N 32°38' W 117°40'611.5
2017-Sep-14 21:30N 32°44' W 117°44'611.7
2017-Sep-14 21:00N 32°49' W 117°47'611.6
2017-Sep-14 20:30N 32°54' W 117°50'611.3
2017-Sep-14 20:00N 32°59' W 117°54'611.4
2017-Sep-14 19:30N 33°04' W 117°57'611.2
2017-Sep-14 19:00N 33°09' W 117°60'611.2
2017-Sep-14 18:30N 33°14' W 118°03'611.1
2017-Sep-14 18:00N 33°19' W 118°06'3 6.2
2017-Sep-14 17:30N 33°22' W 118°07'3 6.8
2017-Sep-14 17:00N 33°25' W 118°09'611.3
2017-Sep-14 16:30N 33°30' W 118°11'610.9
2017-Sep-14 16:00N 33°35' W 118°13'4 8.6
2017-Sep-14 15:30N 33°39' W 118°11'4 8.3
2017-Sep-14 15:00N 33°44' W 118°11'2 2.5
2017-Sep-14 14:16N 33°44' W 118°13'0 0.0
2017-Sep-14 13:58N 33°44' W 118°13'0 0.0
2017-Sep-14 12:10N 33°44' W 118°13'0 0.1
2017-Sep-14 10:04N 33°44' W 118°13'0 0.0
2017-Sep-14 09:52N 33°44' W 118°13'0 0.0
2017-Sep-14 08:10N 33°44' W 118°13'0 0.0
2017-Sep-14 07:52N 33°44' W 118°13'0 0.0
2017-Sep-14 06:16N 33°44' W 118°13'0 0.1
2017-Sep-14 05:04N 33°44' W 118°13'0 0.1
2017-Sep-14 04:58N 33°44' W 118°13'0 0.0
2017-Sep-14 04:19N 33°44' W 118°13'0 0.0
2017-Sep-14 03:22N 33°44' W 118°13'0 0.0
2017-Sep-14 02:40N 33°44' W 118°13'0 0.0
2017-Sep-14 02:28N 33°44' W 118°13'0 0.0
2017-Sep-14 01:58N 33°44' W 118°13'0 0.0
2017-Sep-14 01:16N 33°44' W 118°13'0 0.1
2017-Sep-14 00:58N 33°44' W 118°13'0 0.4
2017-Sep-14 00:30N 33°44' W 118°13'2 4.9
2017-Sep-14 00:00N 33°43' W 118°16'1 1.6
2017-Sep-13 23:30N 33°44' W 118°16'0 0.0
2017-Sep-13 22:51N 33°44' W 118°16'0 0.0
2017-Sep-13 22:27N 33°44' W 118°16'0 0.0
2017-Sep-13 21:51N 33°44' W 118°16'0 0.0
2017-Sep-13 20:33N 33°44' W 118°16'0 0.0
2017-Sep-13 20:15N 33°44' W 118°16'0 0.0
2017-Sep-13 19:57N 33°44' W 118°16'0 0.0
2017-Sep-13 19:27N 33°44' W 118°16'0 0.0
2017-Sep-13 18:39N 33°44' W 118°16'0 0.0
2017-Sep-13 18:27N 33°44' W 118°16'0 0.0
2017-Sep-13 17:51N 33°44' W 118°16'0 0.0
2017-Sep-13 14:21N 33°44' W 118°16'0 0.0
2017-Sep-13 13:57N 33°44' W 118°16'0 0.0
2017-Sep-13 13:21N 33°44' W 118°16'0 0.0
2017-Sep-13 12:57N 33°44' W 118°16'0 0.0
2017-Sep-13 12:27N 33°44' W 118°16'0 0.0
2017-Sep-13 11:57N 33°44' W 118°16'0 0.0
2017-Sep-13 11:27N 33°44' W 118°16'0 0.0
2017-Sep-13 10:57N 33°44' W 118°16'0 0.0
2017-Sep-13 09:33N 33°44' W 118°16'0 0.0
2017-Sep-13 09:27N 33°44' W 118°16'0 0.0
2017-Sep-13 08:21N 33°44' W 118°16'0 0.0
2017-Sep-13 07:51N 33°44' W 118°16'0 0.0
2017-Sep-13 07:27N 33°44' W 118°16'0 0.0
2017-Sep-13 06:57N 33°44' W 118°16'0 0.0
2017-Sep-13 04:45N 33°44' W 118°16'0 0.0
2017-Sep-13 04:27N 33°44' W 118°16'0 0.0
2017-Sep-13 02:09N 33°44' W 118°16'0 0.0
2017-Sep-13 01:57N 33°44' W 118°16'0 0.0
2017-Sep-13 01:27N 33°44' W 118°16'0 0.0
2017-Sep-13 01:00N 33°44' W 118°16'0 0.0
2017-Sep-13 00:27N 33°44' W 118°16'0 0.0
2017-Sep-12 23:57N 33°44' W 118°16'0 0.0
2017-Sep-12 23:30N 33°44' W 118°16'0 0.0
2017-Sep-12 22:57N 33°44' W 118°16'0 0.0
2017-Sep-12 22:27N 33°44' W 118°16'0 0.0
2017-Sep-12 21:57N 33°44' W 118°16'0 0.0
2017-Sep-12 21:21N 33°44' W 118°16'0 0.0
2017-Sep-12 20:51N 33°44' W 118°16'0 0.0
2017-Sep-12 20:21N 33°44' W 118°16'0 0.0
2017-Sep-12 19:57N 33°44' W 118°16'0 0.0
2017-Sep-12 18:21N 33°44' W 118°16'0 0.0
2017-Sep-12 17:57N 33°44' W 118°16'0 0.0
2017-Sep-12 17:03N 33°44' W 118°16'0 0.0
2017-Sep-12 16:57N 33°44' W 118°16'0 0.0
2017-Sep-12 16:21N 33°44' W 118°16'0 0.0
2017-Sep-12 15:57N 33°44' W 118°16'0 0.0
2017-Sep-12 15:21N 33°44' W 118°16'0 0.0
2017-Sep-12 14:57N 33°44' W 118°16'0 0.0
2017-Sep-12 13:27N 33°44' W 118°16'0 0.0
2017-Sep-12 12:51N 33°44' W 118°16'0 0.0
2017-Sep-12 12:15N 33°44' W 118°16'0 0.0
2017-Sep-12 11:57N 33°44' W 118°16'0 0.0
2017-Sep-12 11:27N 33°44' W 118°16'0 0.0
2017-Sep-12 10:51N 33°44' W 118°16'0 0.0
2017-Sep-12 10:27N 33°44' W 118°16'0 0.0
2017-Sep-12 08:30N 33°44' W 118°16'0 0.0
2017-Sep-12 08:00N 33°44' W 118°16'0 0.0
2017-Sep-12 07:27N 33°44' W 118°16'0 0.0
2017-Sep-12 07:00N 33°44' W 118°16'0 0.0
2017-Sep-12 06:30N 33°44' W 118°16'0 0.0
2017-Sep-12 06:00N 33°44' W 118°16'0 0.0
2017-Sep-12 05:30N 33°44' W 118°16'0 0.0
2017-Sep-12 04:57N 33°44' W 118°16'0 0.0
2017-Sep-12 04:24N 33°44' W 118°16'0 0.0
2017-Sep-12 04:00N 33°44' W 118°16'0 0.0
2017-Sep-12 03:27N 33°44' W 118°16'0 0.0
2017-Sep-12 02:54N 33°44' W 118°16'0 0.0
2017-Sep-12 02:30N 33°44' W 118°16'0 0.0
2017-Sep-12 02:00N 33°44' W 118°16'0 0.0
2017-Sep-12 01:30N 33°44' W 118°16'0 0.0
2017-Sep-12 00:57N 33°44' W 118°16'0 0.0
2017-Sep-12 00:21N 33°44' W 118°16'0 0.0
2017-Sep-12 00:00N 33°44' W 118°16'0 0.0
2017-Sep-11 23:30N 33°44' W 118°16'0 0.0
2017-Sep-11 23:00N 33°44' W 118°16'0 0.0
2017-Sep-11 22:27N 33°44' W 118°16'0 0.0
2017-Sep-11 22:00N 33°44' W 118°16'0 0.0
2017-Sep-11 21:30N 33°44' W 118°16'0 0.9
2017-Sep-11 21:00N 33°44' W 118°16'2 3.2
2017-Sep-11 20:30N 33°43' W 118°15'2 3.9
2017-Sep-11 19:58N 33°44' W 118°13'0 0.0
2017-Sep-11 19:25N 33°44' W 118°13'0 0.0
2017-Sep-11 18:59N 33°44' W 118°13'0 0.1
2017-Sep-11 18:29N 33°44' W 118°13'0 0.0
2017-Sep-11 17:58N 33°44' W 118°13'0 0.0
2017-Sep-11 17:28N 33°44' W 118°13'0 0.0
2017-Sep-11 16:58N 33°44' W 118°13'0 0.0
2017-Sep-11 16:28N 33°44' W 118°13'0 0.0
2017-Sep-11 15:58N 33°44' W 118°13'0 0.0
2017-Sep-11 15:25N 33°44' W 118°13'0 0.0
2017-Sep-11 14:59N 33°44' W 118°13'0 0.0
2017-Sep-11 14:28N 33°44' W 118°13'0 0.0
2017-Sep-11 13:59N 33°44' W 118°13'0 0.1
2017-Sep-11 13:16N 33°44' W 118°13'0 0.2
2017-Sep-11 12:59N 33°44' W 118°13'0 0.1
2017-Sep-11 12:29N 33°44' W 118°13'0 0.0
2017-Sep-11 11:59N 33°44' W 118°13'0 0.0
2017-Sep-11 11:28N 33°44' W 118°13'0 0.2
2017-Sep-11 10:56N 33°44' W 118°13'1 2.1
2017-Sep-11 10:30N 33°45' W 118°13'1 0.2
2017-Sep-11 04:26N 33°46' W 118°13'0 0.0
2017-Sep-11 03:59N 33°46' W 118°13'0 0.0
2017-Sep-11 02:56N 33°46' W 118°13'0 0.0
2017-Sep-10 20:26N 33°46' W 118°13'0 0.0
2017-Sep-10 19:50N 33°46' W 118°13'0 0.0
2017-Sep-10 19:08N 33°46' W 118°13'0 0.0
2017-Sep-10 18:50N 33°46' W 118°13'0 0.0
2017-Sep-10 18:26N 33°46' W 118°13'0 0.0
2017-Sep-10 17:56N 33°46' W 118°13'0 0.0
2017-Sep-10 17:26N 33°46' W 118°13'0 0.0
2017-Sep-10 16:56N 33°46' W 118°13'0 0.0
2017-Sep-10 16:26N 33°46' W 118°13'0 0.0
2017-Sep-10 15:56N 33°46' W 118°13'0 0.0
2017-Sep-10 15:20N 33°46' W 118°13'0 0.0
2017-Sep-10 14:56N 33°46' W 118°13'0 0.0
2017-Sep-10 13:56N 33°46' W 118°13'0 0.0
2017-Sep-10 13:27N 33°46' W 118°13'0 0.0
2017-Sep-10 12:49N 33°46' W 118°13'0 0.0
2017-Sep-10 12:27N 33°46' W 118°13'0 0.0
2017-Sep-10 12:00N 33°46' W 118°13'0 0.6
2017-Sep-10 11:30N 33°46' W 118°13'2 3.2
2017-Sep-10 11:00N 33°45' W 118°13'3 6.1
2017-Sep-10 10:30N 33°42' W 118°11'4 7.9
2017-Sep-10 10:00N 33°38' W 118°10'4 7.3
2017-Sep-10 09:30N 33°34' W 118°09'4 7.4
2017-Sep-10 09:00N 33°31' W 118°08'510.1
2017-Sep-10 08:30N 33°26' W 118°06'611.1
2017-Sep-10 08:00N 33°21' W 118°03'611.1
2017-Sep-10 07:30N 33°16' W 118°01'611.1
2017-Sep-10 07:00N 33°11' W 117°58'611.0
2017-Sep-10 06:30N 33°06' W 117°55'611.1
2017-Sep-10 06:00N 33°01' W 117°52'611.0
2017-Sep-10 05:30N 32°56' W 117°49'511.0
2017-Sep-10 05:00N 32°51' W 117°47'510.7
2017-Sep-10 04:30N 32°46' W 117°44'510.9
2017-Sep-10 04:00N 32°41' W 117°42'510.8
2017-Sep-10 03:30N 32°36' W 117°39'510.9
2017-Sep-10 03:00N 32°31' W 117°37'510.7
2017-Sep-10 02:30N 32°26' W 117°35'510.4
2017-Sep-10 02:00N 32°21' W 117°33'510.3
2017-Sep-10 01:30N 32°16' W 117°32'3 6.8
2017-Sep-10 01:00N 32°13' W 117°31'2 4.3
2017-Sep-10 00:30N 32°11' W 117°30'4 8.8
2017-Sep-10 00:00N 32°06' W 117°28'5 9.4
2017-Sep-09 23:30N 32°02' W 117°27'5 9.6
2017-Sep-09 23:00N 31°57' W 117°25'510.4
2017-Sep-09 22:30N 31°52' W 117°23'510.5
2017-Sep-09 22:00N 31°47' W 117°21'510.3
2017-Sep-09 21:30N 31°43' W 117°19'510.3
2017-Sep-09 21:00N 31°38' W 117°18'510.2
2017-Sep-09 20:30N 31°33' W 117°16'510.3
2017-Sep-09 19:59N 31°28' W 117°14'510.1
2017-Sep-09 19:29N 31°23' W 117°12'510.2
2017-Sep-09 19:00N 31°18' W 117°11'510.2
2017-Sep-09 18:30N 31°13' W 117°09'510.4
2017-Sep-09 18:00N 31°08' W 117°07'510.5
2017-Sep-09 17:30N 31°03' W 117°05'2410.7
2017-Sep-09 15:16N 30°40' W 116°57'510.7
2017-Sep-09 14:48N 30°36' W 116°55'1110.8
2017-Sep-09 13:48N 30°25' W 116°51'3410.5
2017-Sep-09 10:34N 29°53' W 116°40'110.4
2017-Sep-09 10:30N 29°52' W 116°40'1710.4
2017-Sep-09 08:50N 29°36' W 116°34'410.6
2017-Sep-09 08:27N 29°32' W 116°32'510.4
2017-Sep-09 08:00N 29°27' W 116°31'510.1
2017-Sep-09 07:30N 29°23' W 116°29'510.2
2017-Sep-09 07:00N 29°18' W 116°27'910.5
2017-Sep-09 06:07N 29°09' W 116°24'210.4
2017-Sep-09 05:55N 29°07' W 116°24'410.4
2017-Sep-09 05:30N 29°03' W 116°22'510.4
2017-Sep-09 05:00N 28°58' W 116°20'  

Dump ship's entire track history